Terminal Aerodrome Forecast
Issued by NWS

Home | Current Version | Previous Version | Text Only | Print | Product List | Glossary On
Versions: 1 2 3 4 5 6 7 8 9 10 11 12 13 14 15 16 17 18
000
FTUS44 KBMX 240100 AAA
TAFANB
TAF AMD
KANB 240101Z 2401/2424 21010KT P6SM BKN025 OVC040
      TEMPO 2402/2405 BKN015
     FM240500 21007KT 4SM BR SCT007 OVC015
     FM241500 24012KT P6SM OVC020
     FM241800 27014KT P6SM SCT020 BKN100=

USA.gov is the U.S. government's official web portal to all federal, state and local government web resources and services.